createdAt,value
2018-04-28T00:00:50.846Z,98928.42
2018-04-28T00:03:20.143Z,98928.29
2018-04-28T00:05:48.942Z,98935.88
2018-04-28T00:08:33.659Z,98935.44
2018-04-28T00:11:02.703Z,98931.53
2018-04-28T00:13:32.463Z,98940.48
2018-04-28T00:19:16.758Z,98941.42
2018-04-28T00:22:01.240Z,98948.73
2018-04-28T00:24:49.468Z,98949.80
2018-04-28T00:27:37.970Z,98953.33
2018-04-28T00:30:08.195Z,98943.27
2018-04-28T00:32:37.216Z,98949.51
2018-04-28T00:35:07.667Z,98958.05
2018-04-28T00:40:41.377Z,98956.11
2018-04-28T00:43:10.143Z,98958.41
2018-04-28T00:48:44.589Z,98949.30
2018-04-28T00:51:31.141Z,98954.59
2018-04-28T00:54:21.982Z,98956.19
2018-04-28T00:57:03.423Z,98961.48
2018-04-28T00:59:32.200Z,98962.42
2018-04-28T01:02:01.735Z,98959.67
2018-04-28T01:04:40.472Z,98964.95
2018-04-28T01:07:09.262Z,98957.23
2018-04-28T01:09:38.504Z,98963.42
2018-04-28T01:12:07.506Z,98957.72
2018-04-28T01:14:44.021Z,98959.48
2018-04-28T01:17:19.597Z,98961.38
2018-04-28T01:20:05.152Z,98962.73
2018-04-28T01:22:36.710Z,98953.91
2018-04-28T01:25:07.143Z,98957.18
2018-04-28T01:27:36.671Z,98959.03
2018-04-28T01:30:12.264Z,98962.55
2018-04-28T01:32:55.991Z,98972.95
2018-04-28T01:38:23.507Z,98968.61
2018-04-28T01:40:52.993Z,98969.39
2018-04-28T01:43:40.635Z,98984.55
2018-04-28T01:46:09.423Z,98979.73
2018-04-28T01:48:38.484Z,98987.19
2018-04-28T01:51:13.278Z,98992.02
2018-04-28T01:54:00.743Z,98990.80
2018-04-28T01:56:29.750Z,98989.30
2018-04-28T01:59:00.551Z,98982.01
2018-04-28T02:01:30.236Z,98986.72
2018-04-28T02:04:06.937Z,98993.47
2018-04-28T02:06:53.295Z,98996.42
2018-04-28T02:09:22.600Z,98992.35
2018-04-28T02:11:59.676Z,98995.56
2018-04-28T02:17:34.010Z,99002.28
2018-04-28T02:20:05.499Z,98999.73
2018-04-28T02:22:41.182Z,98995.91
2018-04-28T02:28:37.901Z,99010.37
2018-04-28T02:31:19.608Z,99010.32
2018-04-28T02:33:48.649Z,99014.37
2018-04-28T02:36:25.439Z,99012.70
2018-04-28T02:38:54.831Z,99018.23
2018-04-28T02:41:23.715Z,99011.75
2018-04-28T02:43:54.583Z,99023.52
2018-04-28T02:49:25.159Z,99031.73
2018-04-28T02:51:56.575Z,99032.63
2018-04-28T02:54:36.112Z,99038.19
2018-04-28T02:57:11.773Z,99038.03
2018-04-28T02:59:52.100Z,99046.69
2018-04-28T03:02:40.530Z,99040.74
2018-04-28T03:08:10.058Z,99037.90
2018-04-28T03:10:53.797Z,99044.25
2018-04-28T03:13:25.843Z,99030.14
2018-04-28T03:15:58.286Z,99029.89
2018-04-28T03:18:32.827Z,99033.41
2018-04-28T03:21:01.568Z,99042.88
2018-04-28T03:23:36.240Z,99041.48
2018-04-28T03:29:07.639Z,99047.01
2018-04-28T03:31:40.040Z,99045.66
2018-04-28T03:34:22.374Z,99049.71
2018-04-28T03:36:51.586Z,99051.62
2018-04-28T03:39:25.904Z,99059.04
2018-04-28T03:42:04.254Z,99060.08
2018-04-28T03:44:32.990Z,99054.89
2018-04-28T03:50:03.557Z,99069.59
2018-04-28T03:52:38.295Z,99068.34
2018-04-28T03:55:07.017Z,99066.32
2018-04-28T03:57:47.428Z,99070.49
2018-04-28T04:00:28.061Z,99069.41
2018-04-28T04:03:20.413Z,99072.57
2018-04-28T04:08:58.963Z,99080.80
2018-04-28T04:11:36.411Z,99085.19
2018-04-28T04:17:14.110Z,99089.42
2018-04-28T04:22:54.811Z,99096.91
2018-04-28T04:25:32.403Z,99105.69
2018-04-28T04:28:06.663Z,99097.87
2018-04-28T04:34:00.635Z,99105.12
2018-04-28T04:36:40.327Z,99107.84
2018-04-28T04:42:34.511Z,99109.58
2018-04-28T04:48:04.618Z,99114.95
2018-04-28T04:50:49.395Z,99120.09
2018-04-28T04:53:30.028Z,99127.16
2018-04-28T04:56:08.399Z,99127.98
2018-04-28T04:58:44.884Z,99130.63
2018-04-28T05:01:22.917Z,99133.20
2018-04-28T05:07:10.625Z,99147.77
2018-04-28T05:09:40.349Z,99150.64
2018-04-28T05:15:32.770Z,99161.44
2018-04-28T05:18:13.519Z,99163.20
2018-04-28T05:20:48.271Z,99170.40
2018-04-28T05:23:22.442Z,99178.55
2018-04-28T05:26:00.431Z,99181.19
2018-04-28T05:31:46.764Z,99186.23
2018-04-28T05:34:26.665Z,99187.94
2018-04-28T05:40:15.973Z,99189.78
2018-04-28T05:45:56.134Z,99191.40
2018-04-28T05:51:34.018Z,99195.42
2018-04-28T05:57:12.571Z,99195.92
2018-04-28T05:59:51.768Z,99194.79
2018-04-28T06:02:32.038Z,99197.81
2018-04-28T06:05:13.012Z,99193.36
2018-04-28T06:10:53.471Z,99196.36
2018-04-28T06:13:33.827Z,99198.54
2018-04-28T06:19:37.457Z,99204.56
2018-04-28T06:22:06.468Z,99205.45
2018-04-28T06:24:35.503Z,99200.22
2018-04-28T06:27:04.206Z,99201.34
2018-04-28T06:29:32.916Z,99208.58
2018-04-28T06:32:02.175Z,99205.47
2018-04-28T06:34:30.917Z,99204.92
2018-04-28T06:37:00.382Z,99206.13
2018-04-28T06:39:29.209Z,99209.54
2018-04-28T06:41:57.766Z,99206.84
2018-04-28T06:44:26.828Z,99210.02
2018-04-28T06:46:55.533Z,99213.61
2018-04-28T06:49:24.092Z,99218.79
2018-04-28T06:51:53.360Z,99221.92
2018-04-28T06:54:22.447Z,99226.27
2018-04-28T06:56:51.276Z,99228.05
2018-04-28T06:59:19.983Z,99229.69
2018-04-28T07:01:48.693Z,99231.39
2018-04-28T07:04:17.409Z,99230.20
2018-04-28T07:06:46.162Z,99232.79
2018-04-28T07:09:15.212Z,99228.31
2018-04-28T07:11:44.110Z,99227.69
2018-04-28T07:14:12.816Z,99221.64
2018-04-28T07:16:41.569Z,99227.36
2018-04-28T07:19:10.581Z,99229.28
2018-04-28T07:21:39.502Z,99232.44
2018-04-28T07:24:08.231Z,99233.67
2018-04-28T07:26:36.952Z,99236.70
2018-04-28T07:29:05.690Z,99232.34
2018-04-28T07:31:34.488Z,99238.76
2018-04-28T07:34:03.206Z,99233.64
2018-04-28T07:36:31.955Z,99234.86
2018-04-28T07:39:00.848Z,99236.25
2018-04-28T07:41:29.555Z,99236.27
2018-04-28T07:43:58.335Z,99237.23
2018-04-28T07:46:26.788Z,99246.38
2018-04-28T07:48:55.728Z,99244.20
2018-04-28T07:51:24.797Z,99243.26
2018-04-28T07:53:53.926Z,99253.62
2018-04-28T07:56:22.388Z,99250.20
2018-04-28T07:58:51.422Z,99253.22
2018-04-28T08:01:20.123Z,99249.81
2018-04-28T08:03:48.836Z,99256.06
2018-04-28T08:06:17.893Z,99255.41
2018-04-28T08:08:46.678Z,99256.07
2018-04-28T08:11:15.350Z,99257.17
2018-04-28T08:13:44.442Z,99256.66
2018-04-28T08:16:13.118Z,99268.62
2018-04-28T08:18:41.617Z,99264.25
2018-04-28T08:21:10.645Z,99265.90
2018-04-28T08:23:39.331Z,99263.44
2018-04-28T08:26:08.144Z,99265.05
2018-04-28T08:28:36.823Z,99269.25
2018-04-28T08:31:05.524Z,99265.71
2018-04-28T08:33:34.359Z,99265.69
2018-04-28T08:36:03.044Z,99262.70
2018-04-28T08:38:31.506Z,99256.94
2018-04-28T08:41:00.131Z,99267.27
2018-04-28T08:43:28.661Z,99257.84
2018-04-28T08:45:57.696Z,99261.14
2018-04-28T08:48:26.375Z,99253.47
2018-04-28T08:50:55.371Z,99254.02
2018-04-28T08:53:24.319Z,99245.38
2018-04-28T08:55:53.310Z,99250.42
2018-04-28T08:58:21.990Z,99248.77
2018-04-28T09:01:05.369Z,99243.23
2018-04-28T09:03:34.370Z,99242.73
2018-04-28T09:06:03.402Z,99241.67
2018-04-28T09:08:32.413Z,99239.39
2018-04-28T09:11:01.975Z,99242.31
2018-04-28T09:13:31.630Z,99234.45
2018-04-28T09:16:01.209Z,99230.03
2018-04-28T09:18:30.799Z,99227.30
2018-04-28T09:21:00.356Z,99227.88
2018-04-28T09:23:29.934Z,99226.81
2018-04-28T09:25:59.491Z,99226.84
2018-04-28T09:28:29.050Z,99230.13
2018-04-28T09:30:58.652Z,99221.22
2018-04-28T09:33:28.212Z,99226.92
2018-04-28T09:35:57.814Z,99222.13
2018-04-28T09:38:27.839Z,99219.97
2018-04-28T09:40:57.396Z,99213.12
2018-04-28T09:43:26.967Z,99211.56
2018-04-28T09:45:56.528Z,99218.59
2018-04-28T09:48:26.203Z,99205.44
2018-04-28T09:50:55.862Z,99211.55
2018-04-28T09:53:25.432Z,99213.09
2018-04-28T09:55:55.011Z,99212.47
2018-04-28T09:58:24.576Z,99211.64
2018-04-28T10:00:54.051Z,99211.84
2018-04-28T10:03:29.034Z,99211.59
2018-04-28T10:05:58.657Z,99210.56
2018-04-28T10:08:28.385Z,99211.68
2018-04-28T10:10:57.962Z,99201.59
2018-04-28T10:13:27.627Z,99200.66
2018-04-28T10:15:57.192Z,99198.10
2018-04-28T10:18:26.752Z,99194.19
2018-04-28T10:20:56.312Z,99193.36
2018-04-28T10:23:25.966Z,99190.41
2018-04-28T10:25:55.522Z,99181.27
2018-04-28T10:28:25.152Z,99190.58
2018-04-28T10:30:54.815Z,99191.00
2018-04-28T10:33:24.506Z,99180.06
2018-04-28T10:35:54.086Z,99173.62
2018-04-28T10:38:23.853Z,99172.40
2018-04-28T10:40:53.419Z,99173.37
2018-04-28T10:43:22.990Z,99170.46
2018-04-28T10:45:52.544Z,99169.38
2018-04-28T10:48:22.263Z,99167.02
2018-04-28T10:50:51.818Z,99166.59
2018-04-28T10:53:21.384Z,99168.81
2018-04-28T10:55:50.949Z,99153.05
2018-04-28T10:58:20.499Z,99157.73
2018-04-28T11:00:50.064Z,99148.41
2018-04-28T11:03:19.629Z,99145.28
2018-04-28T11:05:49.214Z,99145.22
2018-04-28T11:08:18.828Z,99141.98
2018-04-28T11:10:48.489Z,99134.61
2018-04-28T11:13:18.130Z,99131.62
2018-04-28T11:15:47.921Z,99127.89
2018-04-28T11:18:17.467Z,99127.34
2018-04-28T11:20:47.248Z,99127.11
2018-04-28T11:23:16.801Z,99119.78
2018-04-28T11:25:46.468Z,99122.06
2018-04-28T11:28:16.136Z,99117.93
2018-04-28T11:30:45.772Z,99116.09
2018-04-28T11:33:15.351Z,99109.17
2018-04-28T11:35:44.926Z,99125.41
2018-04-28T11:38:14.536Z,99102.63
2018-04-28T11:40:44.185Z,99114.41
2018-04-28T11:43:14.402Z,99109.23
2018-04-28T11:45:43.982Z,99094.67
2018-04-28T11:48:13.607Z,99099.20
2018-04-28T11:50:48.946Z,99093.82
2018-04-28T11:53:18.776Z,99097.48
2018-04-28T11:55:48.507Z,99094.48
2018-04-28T11:58:18.079Z,99091.43
2018-04-28T12:00:47.640Z,99091.88
2018-04-28T12:03:17.203Z,99079.64
2018-04-28T12:05:46.819Z,99077.38
2018-04-28T12:08:16.521Z,99070.80
2018-04-28T12:10:46.513Z,99052.31
2018-04-28T12:13:16.067Z,99047.14
2018-04-28T12:15:45.632Z,99049.05
2018-04-28T12:18:15.303Z,99036.46
2018-04-28T12:20:45.184Z,99042.12
2018-04-28T12:23:14.867Z,99033.08
2018-04-28T12:25:44.415Z,99030.95
2018-04-28T12:28:13.982Z,99034.70
2018-04-28T12:30:43.638Z,99034.70
2018-04-28T12:33:13.195Z,99034.31
2018-04-28T12:35:42.514Z,99037.81
2018-04-28T12:38:12.083Z,99027.66
2018-04-28T12:40:41.748Z,99028.35
2018-04-28T12:43:11.322Z,99032.23
2018-04-28T12:45:40.879Z,99039.91
2018-04-28T12:48:10.232Z,99028.74
2018-04-28T12:50:39.821Z,99023.66
2018-04-28T12:53:09.767Z,99010.25
2018-04-28T12:55:39.351Z,99017.59
2018-04-28T12:58:08.944Z,99007.20
2018-04-28T13:00:38.675Z,99007.13
2018-04-28T13:03:08.240Z,98993.88
2018-04-28T13:05:37.794Z,99005.13
2018-04-28T13:08:07.373Z,98993.98
2018-04-28T13:10:36.952Z,98994.29
2018-04-28T13:13:06.559Z,98996.30
2018-04-28T13:15:36.144Z,98985.24
2018-04-28T13:18:05.746Z,98986.47
2018-04-28T13:20:35.298Z,98979.47
2018-04-28T13:23:04.855Z,98975.48
2018-04-28T13:25:34.407Z,98967.97
2018-04-28T13:28:03.972Z,98966.52
2018-04-28T13:30:33.552Z,98967.02
2018-04-28T13:33:02.897Z,98958.03
2018-04-28T13:35:32.455Z,98958.15
2018-04-28T13:38:02.048Z,98955.03
2018-04-28T13:40:31.595Z,98949.98
2018-04-28T13:43:00.926Z,98944.03
2018-04-28T13:45:30.539Z,98942.01
2018-04-28T13:48:00.095Z,98938.89
2018-04-28T13:50:29.660Z,98936.48
2018-04-28T13:52:59.219Z,98939.64
2018-04-28T13:55:28.795Z,98936.11
2018-04-28T13:57:58.347Z,98939.78
2018-04-28T14:00:27.914Z,98930.30
2018-04-28T14:02:57.666Z,98925.33
2018-04-28T14:05:27.215Z,98930.19
2018-04-28T14:07:56.793Z,98926.59
2018-04-28T14:10:26.339Z,98932.69
2018-04-28T14:12:55.883Z,98920.09
2018-04-28T14:15:25.205Z,98912.98
2018-04-28T14:17:54.537Z,98909.25
2018-04-28T14:20:23.867Z,98916.78
2018-04-28T14:22:53.425Z,98908.66
2018-04-28T14:25:22.989Z,98907.59
2018-04-28T14:27:53.003Z,98897.38
2018-04-28T14:30:22.610Z,98900.91
2018-04-28T14:32:52.243Z,98901.10
2018-04-28T14:35:21.791Z,98885.32
2018-04-28T14:37:51.354Z,98882.13
2018-04-28T14:40:20.932Z,98892.26
2018-04-28T14:42:50.678Z,98883.25
2018-04-28T14:45:20.240Z,98879.24
2018-04-28T14:47:49.977Z,98875.85
2018-04-28T14:50:19.554Z,98870.27
2018-04-28T14:52:49.274Z,98865.23
2018-04-28T14:55:19.059Z,98862.14
2018-04-28T14:57:48.624Z,98862.94
2018-04-28T15:00:18.203Z,98856.08
2018-04-28T15:02:47.764Z,98855.38
2018-04-28T15:05:17.306Z,98850.94
2018-04-28T15:07:46.911Z,98858.53
2018-04-28T15:10:16.474Z,98860.06
2018-04-28T15:12:46.025Z,98855.70
2018-04-28T15:15:15.580Z,98853.33
2018-04-28T15:17:45.182Z,98859.30
2018-04-28T15:20:14.743Z,98849.11
2018-04-28T15:22:44.333Z,98856.97
2018-04-28T15:25:14.072Z,98854.67
2018-04-28T15:27:43.624Z,98852.08
2018-04-28T15:30:13.635Z,98851.91
2018-04-28T15:32:43.192Z,98849.05
2018-04-28T15:35:12.748Z,98844.27
2018-04-28T15:37:42.396Z,98855.11
2018-04-28T15:40:11.963Z,98847.89
2018-04-28T15:42:41.522Z,98844.30
2018-04-28T15:45:11.117Z,98843.66
2018-04-28T15:47:40.761Z,98837.09
2018-04-28T15:50:10.315Z,98835.75
2018-04-28T15:52:40.002Z,98829.87
2018-04-28T15:55:09.577Z,98827.89
2018-04-28T15:57:39.127Z,98827.80
2018-04-28T16:00:08.707Z,98820.31
2018-04-28T16:02:38.289Z,98819.41
2018-04-28T16:05:07.879Z,98817.39
2018-04-28T16:07:37.475Z,98815.12
2018-04-28T16:10:07.033Z,98821.66
2018-04-28T16:12:36.609Z,98817.14
2018-04-28T16:15:06.308Z,98811.87
2018-04-28T16:17:35.955Z,98809.09
2018-04-28T16:20:05.583Z,98809.83
2018-04-28T16:22:35.137Z,98811.47
2018-04-28T16:25:04.376Z,98801.16
2018-04-28T16:27:34.050Z,98803.31
2018-04-28T16:30:03.724Z,98791.47
2018-04-28T16:32:33.420Z,98794.92
2018-04-28T16:35:02.977Z,98781.23
2018-04-28T16:37:32.538Z,98781.58
2018-04-28T16:40:02.109Z,98794.19
2018-04-28T16:42:31.678Z,98793.39
2018-04-28T16:45:01.231Z,98793.03
2018-04-28T16:47:30.859Z,98792.22
2018-04-28T16:50:00.430Z,98789.70
2018-04-28T16:52:29.991Z,98787.73
2018-04-28T16:54:59.579Z,98792.64
2018-04-28T16:57:29.154Z,98793.88
2018-04-28T16:59:58.703Z,98790.03
2018-04-28T17:02:28.263Z,98795.20
2018-04-28T17:04:57.885Z,98793.34
2018-04-28T17:07:27.660Z,98795.53
2018-04-28T17:09:57.211Z,98799.45
2018-04-28T17:12:26.780Z,98789.03
2018-04-28T17:14:56.512Z,98795.24
2018-04-28T17:17:37.190Z,98797.06
2018-04-28T17:20:06.483Z,98786.00
2018-04-28T17:22:36.039Z,98790.62
2018-04-28T17:25:05.619Z,98791.95
2018-04-28T17:27:35.179Z,98791.05
2018-04-28T17:30:04.410Z,98793.33
2018-04-28T17:32:34.052Z,98795.91
2018-04-28T17:35:03.605Z,98798.33
2018-04-28T17:37:33.274Z,98794.38
2018-04-28T17:40:02.844Z,98788.61
2018-04-28T17:42:32.436Z,98796.50
2018-04-28T17:45:02.004Z,98796.09
2018-04-28T17:47:31.570Z,98799.02
2018-04-28T17:50:01.171Z,98801.93
2018-04-28T17:52:30.766Z,98805.94
2018-04-28T17:55:00.570Z,98809.09
2018-04-28T17:57:30.140Z,98810.64
2018-04-28T17:59:59.696Z,98811.33
2018-04-28T18:02:29.340Z,98809.77
2018-04-28T18:04:59.037Z,98812.86
2018-04-28T18:07:28.634Z,98811.12
2018-04-28T18:09:59.067Z,98811.77
2018-04-28T18:12:28.641Z,98815.56
2018-04-28T18:14:58.439Z,98817.61
2018-04-28T18:17:28.117Z,98815.36
2018-04-28T18:19:57.680Z,98816.69
2018-04-28T18:22:27.237Z,98814.25
2018-04-28T18:24:57.176Z,98816.38
2018-04-28T18:27:26.746Z,98823.60
2018-04-28T18:29:56.475Z,98820.85
2018-04-28T18:32:26.183Z,98826.66
2018-04-28T18:34:55.790Z,98832.06
2018-04-28T18:37:25.526Z,98829.14
2018-04-28T18:39:54.778Z,98831.16
2018-04-28T18:42:24.349Z,98831.30
2018-04-28T18:44:53.919Z,98837.45
2018-04-28T18:47:23.607Z,98833.64
2018-04-28T18:49:53.187Z,98834.45
2018-04-28T18:52:22.776Z,98833.61
2018-04-28T18:54:52.347Z,98839.91
2018-04-28T18:57:21.912Z,98835.45
2018-04-28T18:59:51.753Z,98837.72
2018-04-28T19:02:21.335Z,98835.52
2018-04-28T19:04:50.679Z,98823.15
2018-04-28T19:07:20.266Z,98832.89
2018-04-28T19:09:49.853Z,98836.25
2018-04-28T19:12:19.489Z,98834.70
2018-04-28T19:14:49.082Z,98833.66
2018-04-28T19:17:18.663Z,98829.43
2018-04-28T19:19:47.993Z,98830.88
2018-04-28T19:22:17.388Z,98827.86
2018-04-28T19:24:47.132Z,98822.20
2018-04-28T19:27:16.707Z,98821.73
2018-04-28T19:29:46.274Z,98825.41
2018-04-28T19:32:15.828Z,98831.02
2018-04-28T19:34:45.454Z,98811.12
2018-04-28T19:37:15.078Z,98821.02
2018-04-28T19:39:44.816Z,98830.39
2018-04-28T19:42:14.401Z,98816.75
2018-04-28T19:44:44.142Z,98816.83
2018-04-28T19:47:13.729Z,98815.77
2018-04-28T19:49:43.449Z,98822.47
2018-04-28T19:52:13.038Z,98822.32
2018-04-28T19:54:42.684Z,98818.28
2018-04-28T19:57:12.245Z,98813.38
2018-04-28T19:59:41.803Z,98811.75
2018-04-28T20:02:11.519Z,98816.34
2018-04-28T20:04:41.071Z,98810.45
2018-04-28T20:07:10.675Z,98812.47
2018-04-28T20:09:40.279Z,98807.69
2018-04-28T20:12:10.110Z,98806.22
2018-04-28T20:14:39.693Z,98810.67
2018-04-28T20:17:09.243Z,98806.35
2018-04-28T20:19:38.801Z,98812.80
2018-04-28T20:22:19.542Z,98812.40
2018-04-28T20:24:59.926Z,98811.81
2018-04-28T20:27:29.242Z,98809.22
2018-04-28T20:29:58.800Z,98813.46
2018-04-28T20:32:28.448Z,98818.64
2018-04-28T20:34:58.147Z,98821.61
2018-04-28T20:37:27.707Z,98818.46
2018-04-28T20:39:57.291Z,98815.77
2018-04-28T20:42:26.847Z,98818.02
2018-04-28T20:44:56.406Z,98820.10
2018-04-28T20:47:25.972Z,98826.14
2018-04-28T20:49:55.538Z,98828.07
2018-04-28T20:52:25.101Z,98827.56
2018-04-28T20:54:54.672Z,98826.40
2018-04-28T20:57:24.251Z,98827.14
2018-04-28T20:59:53.897Z,98830.51
2018-04-28T21:02:23.580Z,98832.55
2018-04-28T21:04:53.181Z,98833.14
2018-04-28T21:07:22.752Z,98833.98
2018-04-28T21:09:52.340Z,98836.19
2018-04-28T21:12:21.896Z,98837.08
2018-04-28T21:14:51.478Z,98835.41
2018-04-28T21:17:21.023Z,98837.31
2018-04-28T21:19:50.607Z,98838.05
2018-04-28T21:22:20.168Z,98839.83
2018-04-28T21:24:49.722Z,98836.91
2018-04-28T21:27:22.143Z,98833.42
2018-04-28T21:29:51.706Z,98830.16
2018-04-28T21:32:21.271Z,98826.28
2018-04-28T21:34:50.847Z,98828.50
2018-04-28T21:37:20.432Z,98827.39
2018-04-28T21:39:49.983Z,98825.31
2018-04-28T21:42:19.788Z,98830.42
2018-04-28T21:44:49.371Z,98825.17
2018-04-28T21:47:18.944Z,98828.23
2018-04-28T21:49:48.496Z,98829.16
2018-04-28T21:52:18.072Z,98826.46
2018-04-28T21:54:47.623Z,98826.13
2018-04-28T21:57:17.185Z,98820.45
2018-04-28T21:59:49.666Z,98822.05
2018-04-28T22:02:19.222Z,98826.37
2018-04-28T22:04:48.782Z,98830.28
2018-04-28T22:07:18.338Z,98835.84
2018-04-28T22:09:47.908Z,98831.31
2018-04-28T22:12:17.595Z,98837.42
2018-04-28T22:14:47.159Z,98841.49
2018-04-28T22:17:16.731Z,98842.27
2018-04-28T22:19:46.297Z,98843.40
2018-04-28T22:22:15.869Z,98834.27
2018-04-28T22:24:48.303Z,98832.63
2018-04-28T22:27:17.881Z,98830.70
2018-04-28T22:29:47.476Z,98827.70
2018-04-28T22:32:17.078Z,98824.63
2018-04-28T22:34:46.671Z,98831.98
2018-04-28T22:37:16.395Z,98819.56
2018-04-28T22:39:46.213Z,98819.63
2018-04-28T22:42:15.550Z,98823.47
2018-04-28T22:44:45.114Z,98819.43
2018-04-28T22:47:14.689Z,98814.95
2018-04-28T22:49:44.249Z,98810.84
2018-04-28T22:52:13.958Z,98813.09
2018-04-28T22:54:43.660Z,98809.05
2018-04-28T22:57:13.215Z,98807.49
2018-04-28T22:59:42.847Z,98805.61
2018-04-28T23:02:12.584Z,98808.48
2018-04-28T23:04:42.135Z,98811.63
2018-04-28T23:07:11.716Z,98799.64
2018-04-28T23:09:41.283Z,98804.19
2018-04-28T23:12:10.859Z,98800.75
2018-04-28T23:14:40.470Z,98796.23
2018-04-28T23:17:10.038Z,98792.61
2018-04-28T23:19:39.615Z,98790.57
2018-04-28T23:22:08.611Z,98794.13
2018-04-28T23:24:37.943Z,98791.34
2018-04-28T23:27:07.751Z,98792.04
2018-04-28T23:29:37.314Z,98787.04
2018-04-28T23:32:06.927Z,98788.05
2018-04-28T23:34:36.543Z,98778.60
2018-04-28T23:37:07.859Z,98780.02
2018-04-28T23:39:37.437Z,98776.82
2018-04-28T23:42:06.999Z,98778.98
2018-04-28T23:44:36.561Z,98779.17
2018-04-28T23:47:06.156Z,98781.80
2018-04-28T23:49:35.789Z,98770.95
2018-04-28T23:52:04.804Z,98769.95
2018-04-28T23:54:34.427Z,98764.48
2018-04-28T23:57:03.979Z,98763.55
2018-04-28T23:59:33.677Z,98771.02
